This is the latest recevied weather packets stored in our database for station/object IU1OLT-7. If no packets are shown the sender has not sent any weather packets the latest 10 day(s).
| Time | Temp. | Humidity | Pressure | Rain* | Wind** | Luminosity | Snow |
|---|---|---|---|---|---|---|---|
| 1777149337 | 12.22° C | 50% | 1019.6 hPa | - | - | - | - |
| 1777148437 | 13.89° C | 44% | 1019.5 hPa | - | - | - | - |
| 1777147537 | 13.33° C | 46% | 1019.5 hPa | - | - | - | - |
| 1777146637 | 13.89° C | 43% | 1019.4 hPa | - | - | - | - |
| 1777145737 | 12.22° C | 56% | 1019.4 hPa | - | - | - | - |
| 1777144837 | 12.78° C | 59% | 1019.2 hPa | - | - | - | - |
| 1777143937 | 12.78° C | 57% | 1019.2 hPa | - | - | - | - |
| 1777143037 | 11.67° C | 65% | 1019.2 hPa | - | - | - | - |
| 1777142137 | 12.22° C | 63% | 1019.2 hPa | - | - | - | - |
| 1777141237 | 12.78° C | 66% | 1019.2 hPa | - | - | - | - |
| 1777140337 | 15° C | 61% | 1019 hPa | - | - | - | - |
| 1777139437 | 16.67° C | 53% | 1018.8 hPa | - | - | - | - |
| 1777138537 | 18.33° C | 49% | 1018.7 hPa | - | - | - | - |
| 1777137637 | 18.89° C | 46% | 1018.7 hPa | - | - | - | - |
| 1777136737 | 20° C | 44% | 1018.7 hPa | - | - | - | - |
| 1777135837 | 20.56° C | 42% | 1018.7 hPa | - | - | - | - |
| 1777134937 | 22.22° C | 39% | 1018.7 hPa | - | - | - | - |
| 1777134037 | 21.11° C | 41% | 1018.7 hPa | - | - | - | - |
| 1777133137 | 22.22° C | 40% | 1018.8 hPa | - | - | - | - |
| 1777132237 | 23.89° C | 39% | 1018.7 hPa | - | - | - | - |
| 1777131385 | 23.89° C | 39% | 1018.7 hPa | - | - | - | - |
| 1777131337 | 23.89° C | 39% | 1018.7 hPa | - | - | - | - |
| 1777129537 | 21.67° C | 44% | 1018.7 hPa | - | - | - | - |
| 1777128637 | 18.33° C | 55% | 1018.8 hPa | - | - | - | - |
| 1777127734 | 17.78° C | 58% | 1018.9 hPa | - | - | - | - |
* Rain since midnight (hover to see other rain measurements)
** Current wind speed in m/s (hover to see current wind gust speed)